Time,TemperatureF,DewpointF,PressureIn,WindDirection,WindDirectionDegrees,WindSpeedMPH,WindSpeedGustMPH,Humidity,HourlyPrecipIn,Conditions,Clouds,dailyrainin,SolarRadiationWatts/m^2,SoftwareType,DateUTC
2013-01-27 00:02:00,44.3,41.0,29.96,WNW,293,0.0,16.0,88,0.00,,,0.00,0,Wunderground v.1.15,2013-01-27 08:02:00,
2013-01-27 00:08:00,44.0,40.7,29.96,WNW,293,0.0,16.0,88,0.00,,,0.00,0,Wunderground v.1.15,2013-01-27 08:08:00,
2013-01-27 00:14:00,43.7,40.4,29.96,WNW,295,0.0,0.0,88,0.00,,,0.00,0,Wunderground v.1.15,2013-01-27 08:14:00,
2013-01-27 00:20:00,43.4,40.1,29.96,WNW,295,0.0,0.0,88,0.00,,,0.00,0,Wunderground v.1.15,2013-01-27 08:20:00,
2013-01-27 00:26:00,43.2,39.9,29.96,WNW,288,0.0,0.0,88,0.00,,,0.00,0,Wunderground v.1.15,2013-01-27 08:26:00,
2013-01-27 00:32:00,43.1,39.8,29.96,WNW,293,0.0,0.0,88,0.00,,,0.00,0,Wunderground v.1.15,2013-01-27 08:32:00,
2013-01-27 00:38:00,43.0,39.7,29.96,WNW,292,0.0,0.0,88,0.00,,,0.00,0,Wunderground v.1.15,2013-01-27 08:38:00,
2013-01-27 00:44:00,42.9,39.6,29.96,WNW,292,0.0,0.0,88,0.00,,,0.00,0,Wunderground v.1.15,2013-01-27 08:44:00,
2013-01-27 00:50:00,42.7,39.4,29.96,WNW,300,0.0,0.0,88,0.00,,,0.01,0,Wunderground v.1.15,2013-01-27 08:50:00,
2013-01-27 00:56:00,42.4,39.1,29.96,WNW,300,0.0,0.0,88,0.00,,,0.01,0,Wunderground v.1.15,2013-01-27 08:56:00,
2013-01-27 01:02:00,42.2,38.9,29.96,WNW,300,0.0,6.0,88,0.00,,,0.01,0,Wunderground v.1.15,2013-01-27 09:02:00,
2013-01-27 01:08:00,42.0,38.7,29.97,WNW,300,0.0,6.0,88,0.00,,,0.01,0,Wunderground v.1.15,2013-01-27 09:08:00,
2013-01-27 01:14:00,41.8,38.5,29.97,WNW,300,0.0,0.0,88,0.00,,,0.01,0,Wunderground v.1.15,2013-01-27 09:14:00,
2013-01-27 01:20:00,41.8,38.5,29.97,WNW,300,0.0,0.0,88,0.00,,,0.01,0,Wunderground v.1.15,2013-01-27 09:20:00,
2013-01-27 01:26:00,41.9,38.6,29.97,WNW,300,0.0,0.0,88,0.00,,,0.01,0,Wunderground v.1.15,2013-01-27 09:26:00,
2013-01-27 01:32:00,42.2,38.9,29.97,NW,310,0.0,0.0,88,0.00,,,0.01,0,Wunderground v.1.15,2013-01-27 09:32:00,
2013-01-27 01:38:00,42.3,39.0,29.97,NW,310,0.0,0.0,88,0.00,,,0.01,0,Wunderground v.1.15,2013-01-27 09:38:00,
2013-01-27 01:44:00,42.2,38.9,29.97,NW,310,0.0,0.0,88,0.00,,,0.01,0,Wunderground v.1.15,2013-01-27 09:44:00,
2013-01-27 01:50:00,42.0,38.7,29.98,NW,310,0.0,0.0,88,0.00,,,0.01,0,Wunderground v.1.15,2013-01-27 09:50:00,
2013-01-27 01:56:00,41.8,38.5,29.98,NW,310,0.0,0.0,88,0.00,,,0.01,0,Wunderground v.1.15,2013-01-27 09:56:00,
2013-01-27 02:02:00,41.5,38.2,29.98,NW,310,0.0,3.0,88,0.00,,,0.01,0,Wunderground v.1.15,2013-01-27 10:02:00,
2013-01-27 02:08:00,41.3,38.0,29.98,NW,310,0.0,3.0,88,0.00,,,0.01,0,Wunderground v.1.15,2013-01-27 10:08:00,
2013-01-27 02:14:00,41.0,37.7,29.98,NW,310,0.0,0.0,88,0.00,,,0.01,0,Wunderground v.1.15,2013-01-27 10:14:00,
2013-01-27 02:20:00,40.6,37.3,29.98,NW,310,0.0,0.0,88,0.00,,,0.01,0,Wunderground v.1.15,2013-01-27 10:20:00,
2013-01-27 02:26:00,40.5,37.2,29.98,NW,310,0.0,0.0,88,0.00,,,0.01,0,Wunderground v.1.15,2013-01-27 10:26:00,
2013-01-27 02:32:00,40.4,37.1,29.98,NW,310,0.0,0.0,88,0.00,,,0.01,0,Wunderground v.1.15,2013-01-27 10:32:00,
2013-01-27 02:38:00,40.2,36.9,29.99,NW,310,0.0,0.0,88,0.00,,,0.01,0,Wunderground v.1.15,2013-01-27 10:38:00,
2013-01-27 02:44:00,40.0,36.7,29.99,NW,310,0.0,0.0,88,0.00,,,0.01,0,Wunderground v.1.15,2013-01-27 10:44:00,
2013-01-27 02:50:00,39.8,36.8,29.99,NW,310,0.0,0.0,89,0.00,,,0.01,0,Wunderground v.1.15,2013-01-27 10:50:00,
2013-01-27 02:56:00,39.6,36.6,29.99,NW,310,0.0,0.0,89,0.00,,,0.01,0,Wunderground v.1.15,2013-01-27 10:56:00,
2013-01-27 03:02:00,39.5,36.5,29.99,NW,310,0.0,1.0,89,0.00,,,0.01,0,Wunderground v.1.15,2013-01-27 11:02:00,
2013-01-27 03:08:00,39.4,36.4,29.99,NW,310,0.0,1.0,89,0.00,,,0.01,0,Wunderground v.1.15,2013-01-27 11:08:00,
2013-01-27 03:14:00,39.3,36.3,29.99,NW,310,0.0,0.0,89,0.00,,,0.01,0,Wunderground v.1.15,2013-01-27 11:14:00,
2013-01-27 03:20:00,39.2,36.2,29.99,NW,310,0.0,0.0,89,0.00,,,0.01,0,Wunderground v.1.15,2013-01-27 11:20:00,
2013-01-27 03:26:00,39.0,36.0,29.99,NW,310,0.0,0.0,89,0.00,,,0.01,0,Wunderground v.1.15,2013-01-27 11:26:00,
2013-01-27 03:32:00,38.9,35.9,29.99,NW,310,0.0,0.0,89,0.00,,,0.01,0,Wunderground v.1.15,2013-01-27 11:32:00,
2013-01-27 03:38:00,38.8,35.8,29.99,NW,310,0.0,0.0,89,0.00,,,0.01,0,Wunderground v.1.15,2013-01-27 11:38:00,
2013-01-27 03:44:00,38.7,35.7,29.99,NW,310,0.0,0.0,89,0.00,,,0.01,0,Wunderground v.1.15,2013-01-27 11:44:00,
2013-01-27 03:50:00,38.7,35.7,29.99,NW,310,0.0,0.0,89,0.00,,,0.01,0,Wunderground v.1.15,2013-01-27 11:50:00,
2013-01-27 03:56:00,38.5,35.5,29.99,NW,310,0.0,0.0,89,0.00,,,0.01,0,Wunderground v.1.15,2013-01-27 11:56:00,
2013-01-27 04:02:00,38.4,35.4,29.99,NW,310,0.0,0.0,89,0.00,,,0.01,0,Wunderground v.1.15,2013-01-27 12:02:00,
2013-01-27 04:08:00,38.4,35.4,29.99,NW,310,0.0,0.0,89,0.00,,,0.01,0,Wunderground v.1.15,2013-01-27 12:08:00,
2013-01-27 04:14:00,38.3,35.3,29.99,NW,310,0.0,0.0,89,0.00,,,0.01,0,Wunderground v.1.15,2013-01-27 12:14:00,
2013-01-27 04:20:00,38.3,35.6,29.99,NW,310,0.0,0.0,90,0.00,,,0.01,0,Wunderground v.1.15,2013-01-27 12:20:00,
2013-01-27 04:26:00,38.1,35.1,29.99,NW,310,0.0,0.0,89,0.00,,,0.01,0,Wunderground v.1.15,2013-01-27 12:26:00,
2013-01-27 04:32:00,37.9,34.9,30.00,NW,310,0.0,0.0,89,0.00,,,0.01,0,Wunderground v.1.15,2013-01-27 12:32:00,
2013-01-27 04:38:00,37.8,35.1,30.00,NW,310,0.0,0.0,90,0.00,,,0.01,0,Wunderground v.1.15,2013-01-27 12:38:00,
2013-01-27 04:44:00,37.7,35.0,30.00,NW,310,0.0,0.0,90,0.00,,,0.01,0,Wunderground v.1.15,2013-01-27 12:44:00,
2013-01-27 04:50:00,37.6,34.9,30.00,NW,310,0.0,0.0,90,0.00,,,0.01,0,Wunderground v.1.15,2013-01-27 12:50:00,
2013-01-27 04:56:00,37.4,34.7,30.00,NW,310,0.0,0.0,90,0.00,,,0.01,0,Wunderground v.1.15,2013-01-27 12:56:00,
2013-01-27 05:02:00,37.3,34.6,30.00,NW,310,0.0,0.0,90,0.00,,,0.01,0,Wunderground v.1.15,2013-01-27 13:02:00,
2013-01-27 05:08:00,37.2,34.5,30.00,NW,310,0.0,0.0,90,0.00,,,0.01,0,Wunderground v.1.15,2013-01-27 13:08:00,
2013-01-27 05:14:00,37.1,34.4,30.00,NW,310,0.0,0.0,90,0.00,,,0.01,0,Wunderground v.1.15,2013-01-27 13:14:00,
2013-01-27 05:20:00,36.9,34.2,30.00,NW,310,0.0,0.0,90,0.00,,,0.01,0,Wunderground v.1.15,2013-01-27 13:20:00,
2013-01-27 05:26:00,36.8,34.1,30.00,NW,310,0.0,0.0,90,0.00,,,0.01,0,Wunderground v.1.15,2013-01-27 13:26:00,
2013-01-27 05:32:00,36.7,34.0,30.00,NW,310,0.0,0.0,90,0.00,,,0.01,0,Wunderground v.1.15,2013-01-27 13:32:00,
2013-01-27 05:38:00,36.6,33.9,30.01,NW,310,0.0,0.0,90,0.00,,,0.01,0,Wunderground v.1.15,2013-01-27 13:38:00,
2013-01-27 05:44:00,36.6,33.9,30.01,NW,310,0.0,0.0,90,0.00,,,0.01,0,Wunderground v.1.15,2013-01-27 13:44:00,
2013-01-27 05:50:00,36.6,33.9,30.01,NW,310,0.0,0.0,90,0.00,,,0.01,0,Wunderground v.1.15,2013-01-27 13:50:00,
2013-01-27 05:56:00,36.5,33.8,30.01,NW,310,0.0,0.0,90,0.00,,,0.01,0,Wunderground v.1.15,2013-01-27 13:56:00,
2013-01-27 06:02:00,36.4,33.7,30.01,NW,310,0.0,0.0,90,0.00,,,0.01,0,Wunderground v.1.15,2013-01-27 14:02:00,
2013-01-27 06:08:00,36.3,33.6,30.01,NW,310,0.0,0.0,90,0.00,,,0.01,0,Wunderground v.1.15,2013-01-27 14:08:00,
2013-01-27 06:14:00,36.1,33.5,30.01,NW,310,0.0,0.0,90,0.00,,,0.01,0,Wunderground v.1.15,2013-01-27 14:14:00,
2013-01-27 06:20:00,36.0,33.4,30.02,NW,310,0.0,0.0,90,0.00,,,0.01,0,Wunderground v.1.15,2013-01-27 14:20:00,
2013-01-27 06:26:00,35.9,33.3,30.02,NW,310,0.0,0.0,90,0.00,,,0.01,0,Wunderground v.1.15,2013-01-27 14:26:00,
2013-01-27 06:32:00,35.8,33.2,30.02,NW,310,0.0,0.0,90,0.00,,,0.01,0,Wunderground v.1.15,2013-01-27 14:32:00,
2013-01-27 06:38:00,35.7,33.1,30.03,NW,310,0.0,0.0,90,0.00,,,0.01,0,Wunderground v.1.15,2013-01-27 14:38:00,
2013-01-27 06:44:00,35.6,33.0,30.03,NW,310,0.0,0.0,90,0.00,,,0.01,0,Wunderground v.1.15,2013-01-27 14:44:00,
2013-01-27 06:50:00,35.6,33.0,30.03,NW,310,0.0,0.0,90,0.00,,,0.01,0,Wunderground v.1.15,2013-01-27 14:50:00,
2013-01-27 06:56:00,35.5,32.9,30.04,NW,310,0.0,0.0,90,0.00,,,0.01,0,Wunderground v.1.15,2013-01-27 14:56:00,
2013-01-27 07:02:00,35.3,32.7,30.04,NW,310,0.0,0.0,90,0.00,,,0.01,0,Wunderground v.1.15,2013-01-27 15:02:00,
2013-01-27 07:08:00,35.2,32.8,30.04,NW,310,0.0,0.0,91,0.00,,,0.01,0,Wunderground v.1.15,2013-01-27 15:08:00,
2013-01-27 07:14:00,35.1,32.5,30.04,NW,310,0.0,0.0,90,0.00,,,0.01,0,Wunderground v.1.15,2013-01-27 15:14:00,
2013-01-27 07:20:00,35.0,32.4,30.04,NW,310,0.0,0.0,90,0.00,,,0.01,7,Wunderground v.1.15,2013-01-27 15:20:00,
2013-01-27 07:26:00,34.9,32.3,30.04,NW,310,0.0,0.0,90,0.00,,,0.01,9,Wunderground v.1.15,2013-01-27 15:26:00,
2013-01-27 07:32:00,35.0,32.6,30.04,NW,310,0.0,0.0,91,0.00,,,0.01,11,Wunderground v.1.15,2013-01-27 15:32:00,
2013-01-27 07:38:00,35.0,32.6,30.04,NW,310,0.0,0.0,91,0.00,,,0.01,14,Wunderground v.1.15,2013-01-27 15:38:00,
2013-01-27 07:44:00,35.0,32.6,30.05,NW,310,0.0,0.0,91,0.00,,,0.01,16,Wunderground v.1.15,2013-01-27 15:44:00,
2013-01-27 07:50:00,35.0,32.6,30.05,NW,310,0.0,0.0,91,0.00,,,0.01,18,Wunderground v.1.15,2013-01-27 15:50:00,
2013-01-27 07:56:00,35.1,32.7,30.05,NW,308,0.0,0.0,91,0.00,,,0.01,19,Wunderground v.1.15,2013-01-27 15:56:00,
2013-01-27 08:02:00,35.4,33.0,30.05,ENE,57,0.0,0.0,91,0.00,,,0.01,21,Wunderground v.1.15,2013-01-27 16:02:00,
2013-01-27 08:08:00,35.8,33.4,30.05,ENE,57,0.0,0.0,91,0.00,,,0.01,23,Wunderground v.1.15,2013-01-27 16:08:00,
2013-01-27 08:14:00,36.3,33.9,30.06,NNW,344,0.0,0.0,91,0.00,,,0.01,25,Wunderground v.1.15,2013-01-27 16:14:00,
2013-01-27 08:20:00,36.8,34.4,30.06,NNW,344,0.0,0.0,91,0.00,,,0.01,25,Wunderground v.1.15,2013-01-27 16:20:00,
2013-01-27 08:26:00,37.2,34.8,30.06,NNW,344,0.0,0.0,91,0.00,,,0.01,26,Wunderground v.1.15,2013-01-27 16:26:00,
2013-01-27 08:32:00,37.7,35.3,30.06,NNW,337,0.0,0.0,91,0.00,,,0.01,28,Wunderground v.1.15,2013-01-27 16:32:00,
2013-01-27 08:38:00,38.3,35.9,30.07,NNW,337,0.0,0.0,91,0.00,,,0.01,28,Wunderground v.1.15,2013-01-27 16:38:00,
2013-01-27 08:44:00,38.7,36.3,30.07,NNW,337,0.0,0.0,91,0.00,,,0.01,134,Wunderground v.1.15,2013-01-27 16:44:00,
2013-01-27 08:50:00,39.3,36.9,30.07,NNW,337,0.0,0.0,91,0.00,,,0.01,76,Wunderground v.1.15,2013-01-27 16:50:00,
2013-01-27 08:56:00,40.1,37.7,30.07,NW,325,0.0,0.0,91,0.00,,,0.01,51,Wunderground v.1.15,2013-01-27 16:56:00,
2013-01-27 09:02:00,40.8,38.1,30.08,NW,317,0.0,0.0,90,0.00,,,0.01,35,Wunderground v.1.15,2013-01-27 17:02:00,
2013-01-27 09:08:00,41.4,38.7,30.08,NW,313,0.0,0.0,90,0.00,,,0.01,39,Wunderground v.1.15,2013-01-27 17:08:00,
2013-01-27 09:14:00,42.0,39.3,30.08,NW,312,0.0,0.0,90,0.00,,,0.01,33,Wunderground v.1.15,2013-01-27 17:14:00,
2013-01-27 09:20:00,42.4,39.4,30.08,NW,314,0.0,0.0,89,0.00,,,0.01,98,Wunderground v.1.15,2013-01-27 17:20:00,
2013-01-27 09:26:00,43.0,39.7,30.08,WNW,300,0.0,0.0,88,0.00,,,0.01,316,Wunderground v.1.15,2013-01-27 17:26:00,
2013-01-27 09:32:00,44.0,40.4,30.08,WNW,299,0.0,0.0,87,0.00,,,0.01,346,Wunderground v.1.15,2013-01-27 17:32:00,
2013-01-27 09:38:00,45.0,40.8,30.08,WNW,292,0.0,0.0,85,0.00,,,0.01,364,Wunderground v.1.15,2013-01-27 17:38:00,
2013-01-27 09:44:00,45.9,40.4,30.08,WNW,302,0.0,3.0,81,0.00,,,0.01,381,Wunderground v.1.15,2013-01-27 17:44:00,
2013-01-27 09:50:00,46.3,38.8,30.09,WNW,290,1.0,1.0,75,0.00,,,0.01,404,Wunderground v.1.15,2013-01-27 17:50:00,
2013-01-27 09:56:00,46.8,38.6,30.09,West,279,2.0,7.0,73,0.00,,,0.01,424,Wunderground v.1.15,2013-01-27 17:56:00,
2013-01-27 10:02:00,47.2,38.3,30.09,WNW,301,2.0,2.0,71,0.00,,,0.01,439,Wunderground v.1.15,2013-01-27 18:02:00,
2013-01-27 10:08:00,47.6,38.7,30.09,NW,325,2.0,5.0,71,0.00,,,0.01,457,Wunderground v.1.15,2013-01-27 18:08:00,
2013-01-27 10:14:00,48.1,37.7,30.10,NW,322,3.0,7.0,67,0.00,,,0.01,471,Wunderground v.1.15,2013-01-27 18:14:00,
2013-01-27 10:20:00,48.8,38.7,30.10,NW,311,2.0,5.0,68,0.00,,,0.01,483,Wunderground v.1.15,2013-01-27 18:20:00,
2013-01-27 10:26:00,49.2,38.3,30.10,NNW,340,2.0,5.0,66,0.00,,,0.01,496,Wunderground v.1.15,2013-01-27 18:26:00,
2013-01-27 10:32:00,49.6,39.1,30.10,NNW,331,1.0,6.0,67,0.00,,,0.01,508,Wunderground v.1.15,2013-01-27 18:32:00,
2013-01-27 10:38:00,49.8,37.7,30.10,NNW,328,3.0,6.0,63,0.00,,,0.01,519,Wunderground v.1.15,2013-01-27 18:38:00,
2013-01-27 10:44:00,49.9,37.0,30.10,NNW,338,5.0,10.0,61,0.00,,,0.01,529,Wunderground v.1.15,2013-01-27 18:44:00,
2013-01-27 10:50:00,50.0,36.2,30.10,NW,326,5.0,5.0,59,0.00,,,0.01,538,Wunderground v.1.15,2013-01-27 18:50:00,
2013-01-27 10:56:00,50.2,36.0,30.10,North,350,5.0,7.0,58,0.00,,,0.01,548,Wunderground v.1.15,2013-01-27 18:56:00,
2013-01-27 11:02:00,50.9,36.6,30.10,West,279,3.0,6.0,58,0.00,,,0.01,555,Wunderground v.1.15,2013-01-27 19:02:00,
2013-01-27 11:08:00,51.0,36.3,30.10,NW,309,3.0,10.0,57,0.00,,,0.01,566,Wunderground v.1.15,2013-01-27 19:08:00,
2013-01-27 11:14:00,51.0,35.4,30.10,NW,311,5.0,5.0,55,0.00,,,0.01,575,Wunderground v.1.15,2013-01-27 19:14:00,
2013-01-27 11:20:00,51.0,34.5,30.10,NE,34,6.0,6.0,53,0.00,,,0.01,582,Wunderground v.1.15,2013-01-27 19:20:00,
2013-01-27 11:26:00,51.5,35.4,30.10,NW,318,5.0,6.0,54,0.00,,,0.01,587,Wunderground v.1.15,2013-01-27 19:26:00,
2013-01-27 11:32:00,51.9,35.3,30.10,NNE,15,4.0,5.0,53,0.00,,,0.01,594,Wunderground v.1.15,2013-01-27 19:32:00,
2013-01-27 11:38:00,52.0,35.4,30.10,NNE,19,4.0,5.0,53,0.00,,,0.01,598,Wunderground v.1.15,2013-01-27 19:38:00,
2013-01-27 11:44:00,52.3,35.7,30.10,NNW,327,4.0,7.0,53,0.00,,,0.01,606,Wunderground v.1.15,2013-01-27 19:44:00,
2013-01-27 11:50:00,52.2,36.0,30.09,NNW,343,3.0,6.0,54,0.00,,,0.01,608,Wunderground v.1.15,2013-01-27 19:50:00,
2013-01-27 11:56:00,52.7,36.0,30.09,NW,325,3.0,6.0,53,0.00,,,0.01,612,Wunderground v.1.15,2013-01-27 19:56:00,
2013-01-27 12:02:00,52.7,36.5,30.09,NNW,344,4.0,13.0,54,0.00,,,0.01,617,Wunderground v.1.15,2013-01-27 20:02:00,
2013-01-27 12:08:00,53.1,35.9,30.09,NNW,335,3.0,13.0,52,0.00,,,0.01,617,Wunderground v.1.15,2013-01-27 20:08:00,
2013-01-27 12:14:00,53.1,35.9,30.09,North,360,4.0,5.0,52,0.00,,,0.01,621,Wunderground v.1.15,2013-01-27 20:14:00,
2013-01-27 12:20:00,53.1,36.4,30.08,NNW,336,4.0,5.0,53,0.00,,,0.01,622,Wunderground v.1.15,2013-01-27 20:20:00,
2013-01-27 12:26:00,53.0,34.8,30.08,NNW,331,5.0,9.0,50,0.00,,,0.01,622,Wunderground v.1.15,2013-01-27 20:26:00,
2013-01-27 12:32:00,53.2,36.0,30.08,NW,325,5.0,7.0,52,0.00,,,0.01,624,Wunderground v.1.15,2013-01-27 20:32:00,
2013-01-27 12:38:00,53.3,35.6,30.08,North,360,4.0,7.0,51,0.00,,,0.01,621,Wunderground v.1.15,2013-01-27 20:38:00,
2013-01-27 12:44:00,53.4,36.2,30.08,NNW,346,5.0,9.0,52,0.00,,,0.01,621,Wunderground v.1.15,2013-01-27 20:44:00,
2013-01-27 12:50:00,53.7,37.0,30.08,NNE,31,5.0,5.0,53,0.00,,,0.01,619,Wunderground v.1.15,2013-01-27 20:50:00,
2013-01-27 12:56:00,53.7,36.0,30.08,NW,306,4.0,6.0,51,0.00,,,0.01,617,Wunderground v.1.15,2013-01-27 20:56:00,
2013-01-27 13:02:00,53.9,36.7,30.08,NNE,32,3.0,17.0,52,0.00,,,0.01,613,Wunderground v.1.15,2013-01-27 21:02:00,
2013-01-27 13:08:00,54.1,36.9,30.07,NNW,342,3.0,17.0,52,0.00,,,0.01,608,Wunderground v.1.15,2013-01-27 21:08:00,
2013-01-27 13:14:00,54.1,36.9,30.07,NNW,327,4.0,7.0,52,0.00,,,0.01,605,Wunderground v.1.15,2013-01-27 21:14:00,
2013-01-27 13:20:00,54.0,36.8,30.07,NW,311,4.0,4.0,52,0.00,,,0.01,598,Wunderground v.1.15,2013-01-27 21:20:00,
2013-01-27 13:26:00,54.2,36.9,30.07,NNE,22,4.0,8.0,52,0.00,,,0.01,592,Wunderground v.1.15,2013-01-27 21:26:00,
2013-01-27 13:32:00,54.1,36.4,30.07,NNW,339,5.0,6.0,51,0.00,,,0.01,587,Wunderground v.1.15,2013-01-27 21:32:00,
2013-01-27 13:38:00,54.5,36.7,30.07,NW,311,5.0,6.0,51,0.00,,,0.01,580,Wunderground v.1.15,2013-01-27 21:38:00,
2013-01-27 13:44:00,54.6,36.3,30.07,NNW,327,4.0,6.0,50,0.00,,,0.01,573,Wunderground v.1.15,2013-01-27 21:44:00,
2013-01-27 13:50:00,54.6,36.8,30.06,NW,314,4.0,4.0,51,0.00,,,0.01,564,Wunderground v.1.15,2013-01-27 21:50:00,
2013-01-27 13:56:00,55.0,35.7,30.06,NW,318,3.0,6.0,48,0.00,,,0.01,555,Wunderground v.1.15,2013-01-27 21:56:00,
2013-01-27 14:02:00,54.8,34.4,30.06,NNE,15,4.0,16.0,46,0.00,,,0.01,545,Wunderground v.1.15,2013-01-27 22:02:00,
2013-01-27 14:08:00,55.2,34.8,30.06,NW,320,3.0,16.0,46,0.00,,,0.01,538,Wunderground v.1.15,2013-01-27 22:08:00,
2013-01-27 14:14:00,55.5,34.5,30.06,NW,309,3.0,6.0,45,0.00,,,0.01,527,Wunderground v.1.15,2013-01-27 22:14:00,
2013-01-27 14:20:00,55.6,34.6,30.06,NNE,13,2.0,4.0,45,0.00,,,0.01,517,Wunderground v.1.15,2013-01-27 22:20:00,
2013-01-27 14:26:00,55.5,33.9,30.06,NNW,345,3.0,9.0,44,0.00,,,0.01,504,Wunderground v.1.15,2013-01-27 22:26:00,
2013-01-27 14:32:00,55.5,33.9,30.06,NW,321,4.0,4.0,44,0.00,,,0.01,492,Wunderground v.1.15,2013-01-27 22:32:00,
2013-01-27 14:38:00,55.7,34.1,30.06,North,355,3.0,6.0,44,0.00,,,0.01,480,Wunderground v.1.15,2013-01-27 22:38:00,
2013-01-27 14:44:00,55.8,34.8,30.06,WNW,300,3.0,3.0,45,0.00,,,0.01,466,Wunderground v.1.15,2013-01-27 22:44:00,
2013-01-27 14:50:00,56.0,34.9,30.06,NNW,342,3.0,4.0,45,0.00,,,0.01,452,Wunderground v.1.15,2013-01-27 22:50:00,
2013-01-27 14:56:00,55.9,34.3,30.06,NNW,348,3.0,4.0,44,0.00,,,0.01,438,Wunderground v.1.15,2013-01-27 22:56:00,
2013-01-27 15:02:00,56.1,34.5,30.06,NNW,345,3.0,15.0,44,0.00,,,0.01,424,Wunderground v.1.15,2013-01-27 23:02:00,
2013-01-27 15:08:00,56.3,35.2,30.06,NNW,331,2.0,15.0,45,0.00,,,0.01,408,Wunderground v.1.15,2013-01-27 23:08:00,
2013-01-27 15:14:00,56.2,34.6,30.05,NNW,329,2.0,6.0,44,0.00,,,0.01,392,Wunderground v.1.15,2013-01-27 23:14:00,
2013-01-27 15:20:00,56.3,34.6,30.05,NNE,14,3.0,3.0,44,0.00,,,0.01,374,Wunderground v.1.15,2013-01-27 23:20:00,
2013-01-27 15:26:00,56.7,35.0,30.05,North,360,2.0,3.0,44,0.00,,,0.01,360,Wunderground v.1.15,2013-01-27 23:26:00,
2013-01-27 15:32:00,56.8,34.5,30.05,NNW,329,2.0,2.0,43,0.00,,,0.01,343,Wunderground v.1.15,2013-01-27 23:32:00,
2013-01-27 15:38:00,56.6,34.3,30.05,NNE,17,2.0,2.0,43,0.00,,,0.01,327,Wunderground v.1.15,2013-01-27 23:38:00,
2013-01-27 15:44:00,56.4,33.0,30.05,North,349,2.0,3.0,41,0.00,,,0.01,309,Wunderground v.1.15,2013-01-27 23:44:00,
2013-01-27 15:50:00,56.3,33.5,30.05,North,360,3.0,3.0,42,0.00,,,0.01,292,Wunderground v.1.15,2013-01-27 23:50:00,
2013-01-27 15:56:00,56.3,33.5,30.04,NNW,334,2.0,3.0,42,0.00,,,0.01,269,Wunderground v.1.15,2013-01-27 23:56:00,
2013-01-27 16:02:00,56.2,32.8,30.04,NNW,343,2.0,14.0,41,0.00,,,0.01,246,Wunderground v.1.15,2013-01-28 00:02:00,
2013-01-27 16:08:00,56.0,33.2,30.04,NNE,23,2.0,14.0,42,0.00,,,0.01,221,Wunderground v.1.15,2013-01-28 00:08:00,
2013-01-27 16:14:00,55.8,33.6,30.04,NW,316,2.0,6.0,43,0.00,,,0.01,199,Wunderground v.1.15,2013-01-28 00:14:00,
2013-01-27 16:20:00,55.6,34.0,30.04,NE,42,3.0,3.0,44,0.00,,,0.01,172,Wunderground v.1.15,2013-01-28 00:20:00,
2013-01-27 16:26:00,55.4,33.8,30.04,North,355,2.0,3.0,44,0.00,,,0.01,149,Wunderground v.1.15,2013-01-28 00:26:00,
2013-01-27 16:32:00,55.3,34.3,30.04,North,360,2.0,2.0,45,0.00,,,0.01,127,Wunderground v.1.15,2013-01-28 00:32:00,
2013-01-27 16:38:00,54.8,33.8,30.04,NW,319,1.0,2.0,45,0.00,,,0.01,26,Wunderground v.1.15,2013-01-28 00:38:00,
2013-01-27 16:44:00,54.4,34.6,30.04,NNW,343,1.0,1.0,47,0.00,,,0.01,33,Wunderground v.1.15,2013-01-28 00:44:00,
2013-01-27 16:50:00,54.3,35.0,30.04,NNW,344,0.0,0.0,48,0.00,,,0.01,56,Wunderground v.1.15,2013-01-28 00:50:00,
2013-01-27 16:56:00,54.0,34.7,30.04,NNE,13,0.0,0.0,48,0.00,,,0.01,37,Wunderground v.1.15,2013-01-28 00:56:00,
2013-01-27 17:02:00,53.5,34.3,30.04,North,11,1.0,12.0,48,0.00,,,0.01,16,Wunderground v.1.15,2013-01-28 01:02:00,
2013-01-27 17:08:00,52.9,34.2,30.04,North,355,1.0,12.0,49,0.00,,,0.01,14,Wunderground v.1.15,2013-01-28 01:08:00,
2013-01-27 17:14:00,52.5,34.4,30.04,North,351,0.0,1.0,50,0.00,,,0.01,11,Wunderground v.1.15,2013-01-28 01:14:00,
2013-01-27 17:20:00,52.0,34.4,30.04,North,351,0.0,0.0,51,0.00,,,0.01,9,Wunderground v.1.15,2013-01-28 01:20:00,
2013-01-27 17:26:00,51.6,34.5,30.04,North,355,0.0,0.0,52,0.00,,,0.01,5,Wunderground v.1.15,2013-01-28 01:26:00,
2013-01-27 17:32:00,51.1,34.5,30.04,North,355,0.0,0.0,53,0.00,,,0.01,0,Wunderground v.1.15,2013-01-28 01:32:00,
2013-01-27 17:38:00,50.7,34.6,30.04,North,355,0.0,0.0,54,0.00,,,0.01,0,Wunderground v.1.15,2013-01-28 01:38:00,
2013-01-27 17:44:00,50.3,34.7,30.04,North,355,0.0,0.0,55,0.00,,,0.01,0,Wunderground v.1.15,2013-01-28 01:44:00,
2013-01-27 17:50:00,49.8,34.7,30.04,North,355,0.0,0.0,56,0.00,,,0.01,0,Wunderground v.1.15,2013-01-28 01:50:00,
2013-01-27 17:56:00,49.2,34.6,30.05,North,355,0.0,0.0,57,0.00,,,0.01,0,Wunderground v.1.15,2013-01-28 01:56:00,
2013-01-27 18:02:00,48.7,35.0,30.05,North,355,0.0,12.0,59,0.00,,,0.01,0,Wunderground v.1.15,2013-01-28 02:02:00,
2013-01-27 18:08:00,48.1,34.9,30.05,North,355,0.0,12.0,60,0.00,,,0.01,0,Wunderground v.1.15,2013-01-28 02:08:00,
2013-01-27 18:14:00,47.6,35.2,30.05,North,355,0.0,0.0,62,0.00,,,0.01,0,Wunderground v.1.15,2013-01-28 02:14:00,
2013-01-27 18:20:00,47.2,35.2,30.05,North,355,0.0,0.0,63,0.00,,,0.01,0,Wunderground v.1.15,2013-01-28 02:20:00,
2013-01-27 18:26:00,46.9,35.0,30.05,North,355,0.0,0.0,63,0.00,,,0.01,0,Wunderground v.1.15,2013-01-28 02:26:00,
2013-01-27 18:32:00,46.7,35.2,30.05,North,355,0.0,0.0,64,0.00,,,0.01,0,Wunderground v.1.15,2013-01-28 02:32:00,
2013-01-27 18:38:00,46.4,35.3,30.05,North,355,0.0,0.0,65,0.00,,,0.01,0,Wunderground v.1.15,2013-01-28 02:38:00,
2013-01-27 18:44:00,46.1,35.4,30.05,North,355,0.0,0.0,66,0.00,,,0.01,0,Wunderground v.1.15,2013-01-28 02:44:00,
2013-01-27 18:50:00,45.8,35.1,30.05,North,355,0.0,0.0,66,0.00,,,0.01,0,Wunderground v.1.15,2013-01-28 02:50:00,
2013-01-27 18:56:00,45.4,35.1,30.05,North,355,0.0,0.0,67,0.00,,,0.01,0,Wunderground v.1.15,2013-01-28 02:56:00,
2013-01-27 19:02:00,45.0,34.7,30.05,North,355,0.0,3.0,67,0.00,,,0.01,0,Wunderground v.1.15,2013-01-28 03:02:00,
2013-01-27 19:08:00,44.7,35.1,30.05,North,355,0.0,3.0,69,0.00,,,0.01,0,Wunderground v.1.15,2013-01-28 03:08:00,
2013-01-27 19:14:00,44.4,35.9,30.05,NNW,331,0.0,0.0,72,0.00,,,0.01,0,Wunderground v.1.15,2013-01-28 03:14:00,
2013-01-27 19:20:00,43.9,36.1,30.05,NNW,331,0.0,0.0,74,0.00,,,0.01,0,Wunderground v.1.15,2013-01-28 03:20:00,
2013-01-27 19:26:00,43.7,36.0,30.06,NNW,331,0.0,0.0,74,0.00,,,0.01,0,Wunderground v.1.15,2013-01-28 03:26:00,
2013-01-27 19:32:00,43.7,35.6,30.06,NNW,331,0.0,0.0,73,0.00,,,0.01,0,Wunderground v.1.15,2013-01-28 03:32:00,
2013-01-27 19:38:00,43.9,35.5,30.06,NNW,331,0.0,0.0,72,0.00,,,0.01,0,Wunderground v.1.15,2013-01-28 03:38:00,
2013-01-27 19:44:00,44.0,35.2,30.06,NNW,331,0.0,0.0,71,0.00,,,0.01,0,Wunderground v.1.15,2013-01-28 03:44:00,
2013-01-27 19:50:00,44.0,35.2,30.06,NNW,331,0.0,0.0,71,0.00,,,0.01,0,Wunderground v.1.15,2013-01-28 03:50:00,
2013-01-27 19:56:00,44.0,35.2,30.06,NNW,331,0.0,0.0,71,0.00,,,0.01,0,Wunderground v.1.15,2013-01-28 03:56:00,
2013-01-27 20:02:00,43.8,35.0,30.06,NNW,331,0.0,0.0,71,0.00,,,0.01,0,Wunderground v.1.15,2013-01-28 04:02:00,
2013-01-27 20:08:00,43.5,35.1,30.06,NNW,331,0.0,0.0,72,0.00,,,0.01,0,Wunderground v.1.15,2013-01-28 04:08:00,
2013-01-27 20:14:00,43.3,34.9,30.06,NNW,331,0.0,0.0,72,0.00,,,0.01,0,Wunderground v.1.15,2013-01-28 04:14:00,
2013-01-27 20:20:00,43.0,34.9,30.06,NNW,331,0.0,0.0,73,0.00,,,0.01,0,Wunderground v.1.15,2013-01-28 04:20:00,
2013-01-27 20:26:00,42.8,34.7,30.06,NNW,331,0.0,0.0,73,0.00,,,0.01,0,Wunderground v.1.15,2013-01-28 04:26:00,
2013-01-27 20:32:00,42.6,34.9,30.06,NNW,331,0.0,0.0,74,0.00,,,0.01,0,Wunderground v.1.15,2013-01-28 04:32:00,
2013-01-27 20:38:00,42.5,34.8,30.06,NNW,331,0.0,0.0,74,0.00,,,0.01,0,Wunderground v.1.15,2013-01-28 04:38:00,
2013-01-27 20:44:00,42.7,34.6,30.05,NNW,331,0.0,0.0,73,0.00,,,0.01,0,Wunderground v.1.15,2013-01-28 04:44:00,
2013-01-27 20:50:00,42.9,34.8,30.05,NNW,329,0.0,0.0,73,0.00,,,0.01,0,Wunderground v.1.15,2013-01-28 04:50:00,
2013-01-27 20:56:00,43.2,34.8,30.05,NNW,329,0.0,0.0,72,0.00,,,0.01,0,Wunderground v.1.15,2013-01-28 04:56:00,
2013-01-27 21:04:00,43.9,35.1,30.05,NW,325,1.0,2.0,71,0.00,,,0.01,0,Wunderground v.1.15,2013-01-28 05:04:00,
2013-01-27 21:06:00,44.0,34.8,30.05,NW,325,1.0,2.0,70,0.00,,,0.01,0,Wunderground v.1.15,2013-01-28 05:06:00,
2013-01-27 21:12:00,44.5,35.0,30.05,NW,325,1.0,2.0,69,0.00,,,0.01,0,Wunderground v.1.15,2013-01-28 05:12:00,
2013-01-27 21:18:00,44.5,35.0,30.05,NW,323,1.0,2.0,69,0.00,,,0.01,0,Wunderground v.1.15,2013-01-28 05:18:00,
2013-01-27 21:24:00,44.4,35.2,30.05,NW,323,0.0,1.0,70,0.00,,,0.01,0,Wunderground v.1.15,2013-01-28 05:24:00,
2013-01-27 21:30:00,44.1,35.3,30.05,NW,323,0.0,0.0,71,0.00,,,0.01,0,Wunderground v.1.15,2013-01-28 05:30:00,
2013-01-27 21:36:00,43.8,35.0,30.06,NW,323,0.0,0.0,71,0.00,,,0.01,0,Wunderground v.1.15,2013-01-28 05:36:00,
2013-01-27 21:42:00,43.6,35.2,30.05,NW,323,0.0,0.0,72,0.00,,,0.01,0,Wunderground v.1.15,2013-01-28 05:42:00,
2013-01-27 21:48:00,43.6,35.2,30.06,NW,323,0.0,0.0,72,0.00,,,0.01,0,Wunderground v.1.15,2013-01-28 05:48:00,
2013-01-27 21:54:00,43.6,35.2,30.06,NW,324,0.0,0.0,72,0.00,,,0.01,0,Wunderground v.1.15,2013-01-28 05:54:00,
2013-01-27 22:02:00,43.8,35.4,30.06,NW,323,0.0,4.0,72,0.00,,,0.01,0,Wunderground v.1.15,2013-01-28 06:02:00,
2013-01-27 22:08:00,44.0,35.2,30.05,NW,324,0.0,4.0,71,0.00,,,0.01,0,Wunderground v.1.15,2013-01-28 06:08:00,
2013-01-27 22:14:00,44.4,35.2,30.05,NW,323,1.0,2.0,70,0.00,,,0.01,0,Wunderground v.1.15,2013-01-28 06:14:00,
2013-01-27 22:20:00,44.5,35.0,30.05,NW,317,2.0,2.0,69,0.00,,,0.01,0,Wunderground v.1.15,2013-01-28 06:20:00,
2013-01-27 22:26:00,44.8,34.9,30.06,NW,317,3.0,3.0,68,0.00,,,0.01,0,Wunderground v.1.15,2013-01-28 06:26:00,
2013-01-27 22:32:00,44.8,34.9,30.06,NW,317,2.0,2.0,68,0.00,,,0.01,0,Wunderground v.1.15,2013-01-28 06:32:00,
2013-01-27 22:38:00,44.7,34.8,30.06,NW,317,1.0,2.0,68,0.00,,,0.01,0,Wunderground v.1.15,2013-01-28 06:38:00,
2013-01-27 22:44:00,44.5,34.6,30.06,NW,317,0.0,2.0,68,0.00,,,0.01,0,Wunderground v.1.15,2013-01-28 06:44:00,
2013-01-27 22:50:00,44.4,34.9,30.06,NW,317,1.0,1.0,69,0.00,,,0.01,0,Wunderground v.1.15,2013-01-28 06:50:00,
2013-01-27 22:56:00,44.2,34.7,30.06,NW,316,1.0,4.0,69,0.00,,,0.01,0,Wunderground v.1.15,2013-01-28 06:56:00,
2013-01-27 23:02:00,43.9,34.7,30.06,NW,316,1.0,4.0,70,0.00,,,0.01,0,Wunderground v.1.15,2013-01-28 07:02:00,